createdAt,value
2018-07-23T00:01:18.937Z,99.90
2018-07-23T00:03:48.385Z,99.90
2018-07-23T00:06:17.807Z,99.90
2018-07-23T00:08:47.060Z,99.90
2018-07-23T00:11:16.423Z,99.90
2018-07-23T00:13:45.708Z,99.90
2018-07-23T00:16:15.044Z,99.90
2018-07-23T00:18:44.490Z,99.90
2018-07-23T00:21:13.697Z,99.90
2018-07-23T00:23:43.007Z,99.90
2018-07-23T00:26:12.239Z,99.90
2018-07-23T00:28:41.511Z,99.90
2018-07-23T00:31:10.807Z,99.90
2018-07-23T00:33:40.104Z,99.90
2018-07-23T00:36:09.411Z,99.90
2018-07-23T00:38:38.760Z,99.90
2018-07-23T00:41:08.108Z,99.90
2018-07-23T00:43:37.390Z,99.90
2018-07-23T00:48:35.594Z,99.90
2018-07-23T00:51:05.031Z,99.90
2018-07-23T00:53:34.310Z,99.90
2018-07-23T00:56:03.651Z,99.90
2018-07-23T00:58:32.968Z,99.90
2018-07-23T01:01:02.250Z,99.90
2018-07-23T01:03:31.590Z,99.90
2018-07-23T01:06:00.928Z,99.90
2018-07-23T01:08:30.194Z,99.90
2018-07-23T01:13:28.103Z,99.90
2018-07-23T01:15:57.389Z,99.90
2018-07-23T01:18:26.722Z,99.90
2018-07-23T01:20:56.007Z,99.90
2018-07-23T01:23:25.254Z,99.90
2018-07-23T01:25:54.518Z,99.90
2018-07-23T01:28:23.838Z,99.90
2018-07-23T01:30:53.188Z,99.90
2018-07-23T01:33:22.408Z,99.90
2018-07-23T01:35:51.731Z,99.90
2018-07-23T01:38:20.925Z,99.90
2018-07-23T01:40:50.305Z,99.90
2018-07-23T01:43:19.647Z,99.90
2018-07-23T01:48:51.421Z,99.90
2018-07-23T01:51:20.799Z,99.90
2018-07-23T01:53:50.098Z,99.90
2018-07-23T01:56:19.436Z,99.90
2018-07-23T01:58:48.775Z,99.90
2018-07-23T02:01:18.070Z,99.90
2018-07-23T02:03:47.379Z,99.90
2018-07-23T02:06:16.686Z,99.90
2018-07-23T02:08:45.914Z,99.90
2018-07-23T02:11:15.221Z,99.90
2018-07-23T02:13:44.608Z,99.90
2018-07-23T02:16:13.887Z,99.90
2018-07-23T02:18:43.170Z,99.90
2018-07-23T02:21:12.560Z,99.90
2018-07-23T02:23:41.866Z,99.90
2018-07-23T02:26:11.110Z,99.90
2018-07-23T02:28:40.319Z,99.90
2018-07-23T02:31:09.607Z,99.90
2018-07-23T02:33:38.954Z,99.90
2018-07-23T02:36:07.876Z,99.90
2018-07-23T02:38:37.200Z,99.90
2018-07-23T02:41:06.514Z,99.90
2018-07-23T02:43:35.777Z,99.90
2018-07-23T02:46:05.220Z,99.90
2018-07-23T02:48:34.631Z,99.90
2018-07-23T02:51:04.023Z,99.90
2018-07-23T02:53:33.312Z,99.90
2018-07-23T02:56:02.702Z,99.90
2018-07-23T02:58:32.067Z,99.90
2018-07-23T03:01:01.243Z,99.90
2018-07-23T03:03:30.603Z,99.90
2018-07-23T03:05:59.946Z,99.90
2018-07-23T03:08:29.270Z,99.90
2018-07-23T03:10:58.600Z,99.90
2018-07-23T03:13:27.911Z,99.90
2018-07-23T03:15:57.266Z,99.90
2018-07-23T03:18:26.601Z,99.90
2018-07-23T03:20:55.873Z,99.90
2018-07-23T03:25:53.915Z,99.90
2018-07-23T03:28:23.181Z,99.90
2018-07-23T03:30:52.431Z,99.90
2018-07-23T03:33:21.663Z,99.90
2018-07-23T03:35:51.048Z,99.90
2018-07-23T03:38:20.231Z,99.90
2018-07-23T03:40:49.589Z,99.90
2018-07-23T03:43:18.835Z,99.90
2018-07-23T03:45:48.108Z,99.90
2018-07-23T03:48:17.568Z,99.90
2018-07-23T03:50:46.919Z,99.90
2018-07-23T03:53:16.199Z,99.90
2018-07-23T03:55:45.479Z,99.90
2018-07-23T04:00:43.552Z,99.90
2018-07-23T04:03:12.721Z,99.90
2018-07-23T04:05:41.894Z,99.90
2018-07-23T04:08:11.423Z,99.90
2018-07-23T04:10:40.982Z,99.90
2018-07-23T04:13:10.338Z,99.90
2018-07-23T04:15:39.631Z,99.90
2018-07-23T04:18:09.043Z,99.90
2018-07-23T04:20:38.262Z,99.90
2018-07-23T04:23:07.698Z,99.90
2018-07-23T04:25:44.667Z,99.90
2018-07-23T04:28:13.975Z,99.90
2018-07-23T04:30:43.248Z,99.90
2018-07-23T04:33:12.598Z,99.90
2018-07-23T04:35:41.819Z,99.90
2018-07-23T04:38:11.123Z,99.90
2018-07-23T04:40:40.444Z,99.90
2018-07-23T04:43:09.577Z,99.90
2018-07-23T04:45:38.652Z,99.90
2018-07-23T04:48:07.711Z,99.90
2018-07-23T04:50:36.824Z,99.90
2018-07-23T04:53:05.987Z,99.90
2018-07-23T04:55:35.101Z,99.90
2018-07-23T04:58:04.226Z,99.90
2018-07-23T05:00:33.237Z,99.90
2018-07-23T05:03:02.318Z,99.90
2018-07-23T05:05:31.341Z,99.90
2018-07-23T05:08:00.402Z,99.90
2018-07-23T05:10:29.467Z,99.90
2018-07-23T05:12:58.485Z,99.90
2018-07-23T05:15:27.532Z,99.90
2018-07-23T05:17:56.566Z,99.90
2018-07-23T05:20:25.637Z,99.90
2018-07-23T05:22:54.777Z,99.90
2018-07-23T05:25:23.844Z,99.90
2018-07-23T05:27:52.901Z,99.90
2018-07-23T05:30:21.942Z,99.90
2018-07-23T05:33:10.153Z,99.90
2018-07-23T05:35:39.185Z,99.90
2018-07-23T05:38:08.366Z,99.90
2018-07-23T05:40:37.437Z,99.90
2018-07-23T05:43:06.738Z,99.90
2018-07-23T05:45:35.818Z,99.90
2018-07-23T05:48:04.946Z,99.90
2018-07-23T05:50:34.022Z,99.90
2018-07-23T05:53:03.062Z,99.90
2018-07-23T05:55:32.077Z,99.90
2018-07-23T05:58:01.151Z,99.90
2018-07-23T06:00:30.206Z,99.90
2018-07-23T06:02:59.282Z,99.90
2018-07-23T06:05:28.342Z,99.90
2018-07-23T06:07:57.529Z,99.90
2018-07-23T06:10:26.593Z,99.90
2018-07-23T06:12:55.633Z,99.90
2018-07-23T06:15:24.697Z,99.90
2018-07-23T06:17:53.790Z,99.90
2018-07-23T06:20:22.959Z,99.90
2018-07-23T06:22:52.018Z,99.90
2018-07-23T06:25:21.090Z,99.90
2018-07-23T06:27:50.146Z,99.90
2018-07-23T06:30:19.326Z,99.90
2018-07-23T06:32:48.370Z,99.90
2018-07-23T06:35:17.449Z,99.90
2018-07-23T06:37:56.590Z,99.90
2018-07-23T06:40:25.701Z,99.90
2018-07-23T06:42:55.116Z,99.90
2018-07-23T06:47:52.749Z,99.90
2018-07-23T06:50:21.757Z,99.90
2018-07-23T06:52:51.128Z,99.90
2018-07-23T06:55:20.310Z,99.90
2018-07-23T06:57:49.411Z,99.90
2018-07-23T07:00:18.477Z,99.90
2018-07-23T07:02:47.508Z,99.90
2018-07-23T07:05:16.562Z,99.90
2018-07-23T07:10:14.492Z,99.90
2018-07-23T07:12:43.582Z,99.90
2018-07-23T07:15:12.649Z,99.90
2018-07-23T07:17:41.710Z,99.90
2018-07-23T07:20:10.769Z,99.90
2018-07-23T07:22:39.786Z,99.90
2018-07-23T07:25:08.833Z,99.90
2018-07-23T07:27:37.883Z,99.90
2018-07-23T07:30:25.023Z,99.90
2018-07-23T07:32:54.099Z,99.90
2018-07-23T07:35:23.216Z,99.90
2018-07-23T07:37:52.276Z,99.90
2018-07-23T07:40:21.444Z,99.90
2018-07-23T07:42:50.502Z,99.90
2018-07-23T07:45:19.604Z,99.90
2018-07-23T07:47:48.667Z,99.90
2018-07-23T07:50:17.769Z,99.90
2018-07-23T07:52:46.807Z,99.90
2018-07-23T07:55:19.295Z,99.90
2018-07-23T07:57:48.383Z,99.90
2018-07-23T08:00:17.518Z,99.90
2018-07-23T08:02:46.665Z,99.90
2018-07-23T08:05:22.135Z,99.90
2018-07-23T08:07:51.221Z,99.90
2018-07-23T08:10:20.241Z,99.90
2018-07-23T08:12:49.306Z,99.90
2018-07-23T08:15:18.357Z,99.90
2018-07-23T08:17:47.461Z,99.90
2018-07-23T08:20:16.922Z,99.90
2018-07-23T08:22:45.966Z,99.90
2018-07-23T08:25:15.090Z,99.90
2018-07-23T08:27:44.162Z,99.90
2018-07-23T08:30:13.269Z,99.90
2018-07-23T08:32:42.314Z,99.90
2018-07-23T08:35:11.337Z,99.90
2018-07-23T08:37:40.390Z,99.90
2018-07-23T08:40:09.479Z,99.90
2018-07-23T08:42:38.534Z,99.90
2018-07-23T08:45:07.619Z,99.90
2018-07-23T08:47:40.223Z,99.90
2018-07-23T08:50:09.290Z,99.90
2018-07-23T08:52:38.313Z,99.90
2018-07-23T08:55:10.683Z,99.90
2018-07-23T08:57:39.709Z,99.90
2018-07-23T09:00:08.831Z,99.90
2018-07-23T09:02:38.090Z,99.90
2018-07-23T09:05:07.353Z,99.90
2018-07-23T09:12:34.395Z,99.90
2018-07-23T09:15:03.713Z,99.90
2018-07-23T09:17:33.043Z,99.90
2018-07-23T09:20:03.207Z,99.90
2018-07-23T09:22:32.591Z,99.90
2018-07-23T09:25:02.109Z,99.90
2018-07-23T09:27:31.366Z,99.90
2018-07-23T09:30:00.744Z,99.90
2018-07-23T09:32:29.980Z,99.90
2018-07-23T09:34:59.252Z,99.90
2018-07-23T09:37:28.531Z,99.90
2018-07-23T09:42:54.438Z,99.90
2018-07-23T09:45:23.680Z,99.90
2018-07-23T09:47:53.003Z,99.90
2018-07-23T09:50:22.311Z,99.90
2018-07-23T09:52:51.628Z,99.90
2018-07-23T09:55:20.908Z,99.90
2018-07-23T09:57:50.159Z,99.90
2018-07-23T10:00:24.529Z,99.90
2018-07-23T10:02:54.630Z,99.90
2018-07-23T10:07:52.425Z,99.90
2018-07-23T10:12:50.486Z,99.90
2018-07-23T10:15:19.711Z,99.90
2018-07-23T10:17:48.982Z,99.90
2018-07-23T10:20:18.253Z,99.90
2018-07-23T10:22:47.506Z,99.90
2018-07-23T10:25:16.911Z,99.90
2018-07-23T10:27:46.217Z,99.90
2018-07-23T10:30:15.500Z,99.90
2018-07-23T10:32:44.707Z,99.90
2018-07-23T10:35:13.918Z,99.90
2018-07-23T10:37:43.195Z,99.90
2018-07-23T10:40:12.548Z,99.90
2018-07-23T10:42:41.888Z,99.90
2018-07-23T10:45:11.196Z,98.50
2018-07-23T10:47:40.529Z,99.90
2018-07-23T10:50:09.807Z,96.90
2018-07-23T10:52:39.030Z,97.40
2018-07-23T10:55:08.325Z,94.80
2018-07-23T10:57:37.523Z,93.20
2018-07-23T11:00:07.238Z,95.60
2018-07-23T11:02:37.000Z,97.10
2018-07-23T11:05:07.038Z,98.40
2018-07-23T11:07:36.371Z,90.70
2018-07-23T11:10:06.424Z,93.30
2018-07-23T11:12:36.060Z,89.90
2018-07-23T11:15:06.863Z,89.70
2018-07-23T11:17:36.942Z,91.80
2018-07-23T11:20:08.026Z,97.60
2018-07-23T11:22:37.358Z,87.90
2018-07-23T11:25:38.416Z,92.40
2018-07-23T11:27:36.463Z,90.10
2018-07-23T11:30:06.374Z,83.10
2018-07-23T11:35:10.885Z,83.40
2018-07-23T11:37:40.131Z,80.20
2018-07-23T11:40:09.479Z,82.70
2018-07-23T11:42:38.781Z,79.10
2018-07-23T11:45:08.130Z,76.60
2018-07-23T11:47:37.444Z,78.20
2018-07-23T17:50:11.878Z,59.40
2018-07-23T17:52:41.215Z,61.00
2018-07-23T17:55:10.633Z,62.70
2018-07-23T17:57:39.932Z,63.90
2018-07-23T18:00:09.302Z,64.80
2018-07-23T18:02:38.601Z,65.30
2018-07-23T18:05:07.950Z,65.40
2018-07-23T18:07:37.268Z,65.70
2018-07-23T18:10:06.654Z,66.60
2018-07-23T18:12:36.020Z,66.00
2018-07-23T18:15:05.467Z,66.70
2018-07-23T18:17:34.763Z,66.90
2018-07-23T18:20:04.178Z,67.10
2018-07-23T18:22:33.544Z,67.00
2018-07-23T18:25:02.944Z,67.30
2018-07-23T18:27:32.199Z,67.20
2018-07-23T18:30:01.590Z,67.10
2018-07-23T18:32:30.845Z,66.90
2018-07-23T18:35:00.517Z,65.70
2018-07-23T18:37:30.073Z,67.70
2018-07-23T18:39:59.410Z,68.10
2018-07-23T18:42:28.662Z,68.90
2018-07-23T18:44:57.929Z,69.70
2018-07-23T18:47:27.319Z,70.10
2018-07-23T18:49:58.285Z,70.00
2018-07-23T18:52:28.625Z,69.50
2018-07-23T18:54:59.939Z,69.70
2018-07-23T18:57:29.250Z,70.40
2018-07-23T18:59:58.543Z,70.20
2018-07-23T19:02:27.874Z,70.10
2018-07-23T19:04:57.142Z,71.50
2018-07-23T19:07:26.367Z,71.50
2018-07-23T19:09:55.584Z,70.30
2018-07-23T19:12:24.763Z,72.00
2018-07-23T19:14:54.093Z,74.00
2018-07-23T19:17:23.358Z,73.40
2018-07-23T19:19:52.782Z,73.70
2018-07-23T19:22:22.146Z,74.90
2018-07-23T19:24:51.790Z,74.70
2018-07-23T19:27:21.126Z,73.90
2018-07-23T19:29:50.414Z,74.90
2018-07-23T19:32:19.657Z,74.80
2018-07-23T19:34:48.960Z,74.70
2018-07-23T19:37:18.378Z,75.90
2018-07-23T19:39:47.526Z,74.70
2018-07-23T19:42:16.815Z,76.50
2018-07-23T19:44:45.984Z,75.80
2018-07-23T19:47:15.202Z,76.50
2018-07-23T19:49:44.589Z,78.50
2018-07-23T19:52:13.769Z,79.60
2018-07-23T19:54:42.999Z,80.30
2018-07-23T19:57:12.306Z,79.20
2018-07-23T19:59:41.646Z,80.60
2018-07-23T20:02:10.996Z,80.40
2018-07-23T20:04:40.273Z,79.70
2018-07-23T20:07:09.491Z,80.40
2018-07-23T20:09:38.711Z,81.30
2018-07-23T20:12:08.021Z,83.20
2018-07-23T20:14:37.338Z,82.00
2018-07-23T20:17:06.781Z,82.90
2018-07-23T20:19:36.099Z,80.10
2018-07-23T20:22:05.458Z,84.00
2018-07-23T20:24:34.726Z,82.30
2018-07-23T20:27:03.980Z,87.60
2018-07-23T20:29:33.404Z,86.30
2018-07-23T20:32:02.671Z,85.30
2018-07-23T20:34:31.957Z,87.00
2018-07-23T20:37:01.122Z,85.40
2018-07-23T20:39:30.383Z,87.80
2018-07-23T20:41:59.621Z,88.80
2018-07-23T20:44:28.883Z,88.30
2018-07-23T20:46:58.166Z,91.20
2018-07-23T20:49:27.463Z,92.70
2018-07-23T20:51:56.753Z,94.40
2018-07-23T20:54:26.167Z,91.50
2018-07-23T20:56:55.495Z,93.30
2018-07-23T20:59:24.811Z,95.40
2018-07-23T21:01:54.095Z,94.70
2018-07-23T21:04:23.386Z,96.60
2018-07-23T21:06:52.666Z,98.90
2018-07-23T21:09:22.038Z,98.60
2018-07-23T21:11:51.238Z,99.90
2018-07-23T21:14:20.411Z,97.60
2018-07-23T21:16:49.888Z,99.90
2018-07-23T21:19:19.171Z,99.90
2018-07-23T21:21:48.484Z,99.90
2018-07-23T21:24:30.783Z,99.80
2018-07-23T21:27:00.102Z,99.90
2018-07-23T21:29:29.467Z,99.90
2018-07-23T21:31:58.901Z,99.90
2018-07-23T21:34:28.323Z,99.90
2018-07-23T21:36:57.616Z,99.90
2018-07-23T21:39:26.994Z,99.90
2018-07-23T21:41:56.279Z,99.90
2018-07-23T21:44:25.632Z,99.90
2018-07-23T21:46:54.990Z,99.90
2018-07-23T21:49:24.270Z,99.90
2018-07-23T21:51:53.560Z,99.90
2018-07-23T21:54:22.847Z,99.90
2018-07-23T21:56:52.097Z,99.90
2018-07-23T21:59:21.538Z,99.90
2018-07-23T22:01:50.971Z,99.90
2018-07-23T22:04:20.294Z,99.90
2018-07-23T22:06:49.535Z,99.90
2018-07-23T22:09:18.894Z,99.90
2018-07-23T22:11:48.148Z,99.90
2018-07-23T22:14:17.467Z,99.90
2018-07-23T22:16:46.776Z,99.90
2018-07-23T22:19:16.110Z,99.90
2018-07-23T22:21:45.491Z,99.90
2018-07-23T22:24:14.832Z,99.90
2018-07-23T22:26:44.347Z,99.90
2018-07-23T22:29:13.702Z,99.90
2018-07-23T22:31:43.362Z,99.90
2018-07-23T22:34:12.646Z,99.90
2018-07-23T22:36:41.944Z,99.90
2018-07-23T22:39:12.486Z,99.90
2018-07-23T22:41:42.088Z,99.90
2018-07-23T22:44:11.411Z,99.90
2018-07-23T22:46:40.752Z,99.90
2018-07-23T22:49:10.061Z,99.90
2018-07-23T22:51:39.294Z,99.90
2018-07-23T22:54:08.531Z,99.90
2018-07-23T22:56:37.929Z,99.90
2018-07-23T22:59:07.262Z,99.90
2018-07-23T23:01:36.591Z,99.90
2018-07-23T23:04:06.032Z,99.90
2018-07-23T23:06:35.386Z,99.90
2018-07-23T23:09:06.687Z,99.90
2018-07-23T23:14:04.774Z,99.90
2018-07-23T23:16:34.118Z,99.90
2018-07-23T23:19:03.494Z,99.90
2018-07-23T23:21:32.667Z,99.90
2018-07-23T23:24:01.897Z,99.90
2018-07-23T23:26:31.162Z,99.90
2018-07-23T23:29:00.473Z,99.90
2018-07-23T23:31:29.794Z,99.90
2018-07-23T23:33:59.006Z,99.90
2018-07-23T23:36:28.243Z,99.90
2018-07-23T23:38:57.442Z,99.90
2018-07-23T23:41:26.668Z,99.90
2018-07-23T23:43:55.889Z,99.90
2018-07-23T23:46:25.127Z,99.90
2018-07-23T23:48:54.438Z,99.90
2018-07-23T23:51:23.678Z,99.90
2018-07-23T23:53:52.906Z,99.90
2018-07-23T23:56:22.158Z,99.90
2018-07-23T23:58:51.511Z,99.90
